Time;durP1;ratioP1;P1;durP2;ratioP2;P2;SDS_P1;SDS_P2;PMS_P1;PMS_P2;Temp;Humidity;BMP_temperature;BMP_pressure;BME280_temperature;BME280_humidity;BME280_pressure;Samples;Min_cycle;Max_cycle;Signal;HPM_P1;HPM_P2
2023/04/02 00:02:24;;;;;;;8.43;1.50;;;;;;;;;;4972269;28;20034;-74
2023/04/02 00:05:28;;;;;;;5.10;1.00;;;;;;;;;;4971841;28;20466;-72
2023/04/02 00:07:59;;;;;;;6.68;0.93;;;;;;;;;;4972240;28;20042;-72
2023/04/02 00:10:37;;;;;;;7.68;1.40;;;;;;;;;;4971843;28;20033;-73
2023/04/02 00:13:08;;;;;;;6.97;1.10;;;;;;;;;;4972000;28;20047;-71
2023/04/02 00:15:34;;;;;;;;;;;;;;;;;;4972042;28;20038;-69
2023/04/02 00:18:00;;;;;;;8.75;0.88;;;;;;;;;;4971992;28;19914;-70
2023/04/02 00:20:27;;;;;;;12.00;1.25;;;;;;;;;;4971726;28;20033;-71
2023/04/02 00:22:55;;;;;;;5.93;1.20;;;;;;;;;;4971800;28;20117;-73
2023/04/02 00:25:21;;;;;;;6.65;1.33;;;;;;;;;;4970444;28;20059;-73
2023/04/02 00:27:46;;;;;;;6.07;1.08;;;;;;;;;;4971265;28;20533;-70
2023/04/02 00:30:12;;;;;;;7.43;1.02;;;;;;;;;;4971402;28;20035;-71
2023/04/02 00:32:38;;;;;;;5.70;1.05;;;;;;;;;;4971696;28;20039;-76
2023/04/02 00:35:10;;;;;;;7.72;1.02;;;;;;;;;;4971407;28;20074;-73
2023/04/02 00:37:41;;;;;;;6.82;1.05;;;;;;;;;;4971674;28;20058;-71
2023/04/02 00:40:28;;;;;;;8.32;1.10;;;;;;;;;;4971594;28;20030;-71
2023/04/02 00:42:56;;;;;;;7.18;1.10;;;;;;;;;;4971612;28;20698;-71
2023/04/02 00:45:27;;;;;;;4.80;0.80;;;;;;;;;;4969935;28;20034;-71
2023/04/02 00:47:53;;;;;;;;;;;;;;;;;;4971842;28;20031;-73
2023/04/02 00:50:37;;;;;;;4.93;0.93;;;;;;;;;;4971231;28;20001;-73
2023/04/02 00:53:10;;;;;;;5.57;0.85;;;;;;;;;;4971492;28;20035;-70
2023/04/02 00:55:38;;;;;;;4.43;1.00;;;;;;;;;;4971089;28;20637;-70
2023/04/02 00:58:16;;;;;;;11.00;1.00;;;;;;;;;;4973366;28;20078;-71
2023/04/02 01:00:49;;;;;;;7.22;1.08;;;;;;;;;;4981473;28;20035;-74
2023/04/02 01:03:28;;;;;;;5.03;0.80;;;;;;;;;;4981623;28;20043;-74
2023/04/02 01:06:11;;;;;;;4.40;0.82;;;;;;;;;;4980721;28;20058;-74
2023/04/02 01:08:58;;;;;;;4.95;0.68;;;;;;;;;;4981798;28;20042;-67
2023/04/02 01:11:53;;;;;;;4.50;1.00;;;;;;;;;;4981522;28;20053;-73
2023/04/02 01:14:46;;;;;;;2.60;0.70;;;;;;;;;;4982221;28;20210;-73
2023/04/02 01:17:32;;;;;;;4.90;1.10;;;;;;;;;;4972231;28;20057;-72
2023/04/02 01:20:31;;;;;;;4.15;0.70;;;;;;;;;;4971294;28;20037;-72
2023/04/02 01:23:51;;;;;;;4.75;0.80;;;;;;;;;;4970900;28;20081;-71
2023/04/02 01:26:33;;;;;;;5.20;1.20;;;;;;;;;;4954433;28;20495;-73
2023/04/02 01:29:01;;;;;;;4.97;1.00;;;;;;;;;;4970995;28;20038;-73
2023/04/02 01:31:29;;;;;;;5.15;0.93;;;;;;;;;;4970875;28;20621;-73
2023/04/02 01:33:55;;;;;;;4.53;0.90;;;;;;;;;;4971122;28;20049;-73
2023/04/02 01:36:35;;;;;;;5.55;1.00;;;;;;;;;;4970668;28;20035;-72
2023/04/02 01:39:12;;;;;;;4.97;0.93;;;;;;;;;;4973792;28;20109;-73
2023/04/02 01:42:05;;;;;;;8.65;1.33;;;;;;;;;;4974543;28;20541;-72
2023/04/02 01:44:47;;;;;;;5.07;0.82;;;;;;;;;;4967737;28;20059;-73
2023/04/02 01:47:15;;;;;;;4.35;1.20;;;;;;;;;;4974665;28;20042;-72
2023/04/02 01:49:42;;;;;;;5.55;1.00;;;;;;;;;;4974745;28;20376;-71
2023/04/02 01:52:12;;;;;;;3.40;1.00;;;;;;;;;;4974673;28;20085;-72
2023/04/02 01:54:38;;;;;;;6.38;1.10;;;;;;;;;;4974806;28;20027;-73
2023/04/02 01:57:04;;;;;;;7.47;0.82;;;;;;;;;;4974747;28;20035;-72
2023/04/02 01:59:32;;;;;;;6.97;1.20;;;;;;;;;;4977635;28;20027;-74
2023/04/02 02:02:01;;;;;;;7.25;1.15;;;;;;;;;;4984982;28;20109;-73
2023/04/02 02:04:27;;;;;;;6.70;1.23;;;;;;;;;;4977317;28;20047;-73
2023/04/02 02:06:57;;;;;;;6.70;1.20;;;;;;;;;;4974528;28;20098;-72
2023/04/02 02:09:25;;;;;;;6.85;1.00;;;;;;;;;;4974915;28;20121;-74
2023/04/02 02:11:51;;;;;;;5.95;1.00;;;;;;;;;;4974300;28;20023;-72
2023/04/02 02:14:20;;;;;;;2.78;0.65;;;;;;;;;;4975141;28;20430;-73
2023/04/02 02:16:46;;;;;;;5.18;1.35;;;;;;;;;;4973800;28;20074;-69
2023/04/02 02:19:46;;;;;;;5.20;0.80;;;;;;;;;;4974087;28;20170;-64
2023/04/02 02:22:31;;;;;;;7.43;1.08;;;;;;;;;;4973779;28;20023;-70
2023/04/02 02:25:00;;;;;;;6.07;0.98;;;;;;;;;;4974232;28;20027;-71
2023/04/02 02:27:25;;;;;;;7.72;1.10;;;;;;;;;;4973873;28;20022;-73
2023/04/02 02:29:55;;;;;;;6.13;1.02;;;;;;;;;;4974076;28;20061;-74
2023/04/02 02:32:26;;;;;;;5.95;1.52;;;;;;;;;;4973902;28;20027;-73
2023/04/02 02:35:00;;;;;;;7.97;1.20;;;;;;;;;;4972608;28;20043;-73
2023/04/02 02:37:37;;;;;;;6.60;1.00;;;;;;;;;;4972002;28;20636;-74
2023/04/02 02:40:10;;;;;;;8.35;0.95;;;;;;;;;;4973987;28;20025;-73
2023/04/02 02:42:41;;;;;;;7.47;1.60;;;;;;;;;;4973621;28;20383;-73
2023/04/02 02:45:15;;;;;;;12.07;1.25;;;;;;;;;;4973769;28;20086;-71
2023/04/02 02:47:42;;;;;;;7.03;1.00;;;;;;;;;;4973361;28;20106;-71
2023/04/02 02:50:18;;;;;;;6.25;1.13;;;;;;;;;;4973004;28;20046;-71
2023/04/02 02:52:49;;;;;;;7.03;0.85;;;;;;;;;;4973173;28;20037;-72
2023/04/02 02:55:38;;;;;;;9.18;1.80;;;;;;;;;;4973381;28;20031;-67
2023/04/02 02:58:26;;;;;;;5.88;1.20;;;;;;;;;;4973328;28;20066;-72
2023/04/02 03:00:52;;;;;;;9.75;1.20;;;;;;;;;;4973447;28;20019;-72
2023/04/02 03:03:25;;;;;;;10.75;1.33;;;;;;;;;;4972936;28;20503;-70
2023/04/02 03:06:04;;;;;;;5.25;1.10;;;;;;;;;;4971770;28;20026;-77
2023/04/02 03:09:05;;;;;;;7.72;1.08;;;;;;;;;;4973185;28;20042;-72
2023/04/02 03:11:39;;;;;;;10.70;1.55;;;;;;;;;;4971717;28;20031;-76
2023/04/02 03:14:52;;;;;;;7.65;1.52;;;;;;;;;;4973310;28;20031;-74
2023/04/02 03:17:40;;;;;;;8.65;1.20;;;;;;;;;;4969108;28;20047;-77
2023/04/02 03:20:53;;;;;;;8.65;1.10;;;;;;;;;;4973302;28;20134;-76
2023/04/02 03:23:45;;;;;;;5.40;0.90;;;;;;;;;;4968994;28;20499;-73
2023/04/02 03:26:30;;;;;;;9.43;1.02;;;;;;;;;;4967169;28;20129;-75
2023/04/02 03:29:07;;;;;;;8.43;1.30;;;;;;;;;;4972680;28;20027;-76
2023/04/02 03:31:59;;;;;;;7.82;1.25;;;;;;;;;;4972820;28;20078;-75
2023/04/02 03:34:32;;;;;;;11.82;1.30;;;;;;;;;;4968432;28;20043;-75
2023/04/02 03:37:01;;;;;;;10.38;1.20;;;;;;;;;;4972336;28;20027;-74
2023/04/02 03:39:36;;;;;;;8.05;1.10;;;;;;;;;;4972796;28;20154;-75
2023/04/02 03:42:25;;;;;;;9.57;1.38;;;;;;;;;;4972316;28;20077;-74
2023/04/02 03:44:58;;;;;;;7.95;1.70;;;;;;;;;;4972393;28;20463;-73
2023/04/02 03:47:35;;;;;;;10.13;1.50;;;;;;;;;;4972181;28;20031;-75
2023/04/02 03:50:22;;;;;;;7.47;1.20;;;;;;;;;;4973018;28;20065;-76
2023/04/02 03:52:47;;;;;;;11.90;1.27;;;;;;;;;;4972150;28;20101;-76
2023/04/02 03:55:20;;;;;;;6.28;1.55;;;;;;;;;;4972565;28;20027;-76
2023/04/02 03:58:22;;;;;;;12.10;1.45;;;;;;;;;;4971936;28;20497;-76
2023/04/02 04:00:57;;;;;;;9.10;1.20;;;;;;;;;;4970517;28;20035;-73
2023/04/02 04:03:45;;;;;;;10.25;1.17;;;;;;;;;;4971296;28;20134;-72
2023/04/02 04:06:20;;;;;;;7.43;1.30;;;;;;;;;;4971955;28;20105;-70
2023/04/02 04:08:53;;;;;;;6.35;1.23;;;;;;;;;;4972073;28;20035;-74
2023/04/02 04:11:25;;;;;;;9.75;1.40;;;;;;;;;;4972172;28;20058;-72
2023/04/02 04:14:18;;;;;;;10.20;1.40;;;;;;;;;;4971953;28;20403;-75
2023/04/02 04:16:55;;;;;;;11.00;1.52;;;;;;;;;;4971773;28;20075;-71
2023/04/02 04:19:47;;;;;;;10.25;1.38;;;;;;;;;;4971755;28;20416;-75
2023/04/02 04:22:29;;;;;;;10.18;1.55;;;;;;;;;;4966171;28;20514;-74
2023/04/02 04:25:16;;;;;;;13.48;2.38;;;;;;;;;;4972203;28;20385;-73
2023/04/02 04:28:07;;;;;;;10.95;1.42;;;;;;;;;;4971441;28;20038;-73
2023/04/02 04:30:50;;;;;;;11.07;1.55;;;;;;;;;;4972005;28;20027;-72
2023/04/02 04:33:23;;;;;;;9.95;1.38;;;;;;;;;;4971786;28;20030;-73
2023/04/02 04:35:56;;;;;;;8.02;1.20;;;;;;;;;;4971691;28;20023;-72
2023/04/02 04:38:38;;;;;;;9.25;1.52;;;;;;;;;;4971423;28;20026;-71
2023/04/02 04:41:16;;;;;;;11.50;1.45;;;;;;;;;;4980196;28;20369;-75
2023/04/02 04:43:44;;;;;;;15.27;1.48;;;;;;;;;;4981818;28;20034;-73
2023/04/02 04:46:17;;;;;;;13.27;1.33;;;;;;;;;;4981533;28;20314;-73
2023/04/02 04:48:54;;;;;;;14.73;1.40;;;;;;;;;;4981212;28;20042;-76
2023/04/02 04:51:28;;;;;;;10.70;1.42;;;;;;;;;;4982470;28;20035;-75
2023/04/02 04:53:54;;;;;;;10.77;1.33;;;;;;;;;;4982373;28;20027;-75
2023/04/02 04:56:26;;;;;;;14.27;1.90;;;;;;;;;;4982391;28;20105;-75
2023/04/02 04:59:01;;;;;;;12.18;1.63;;;;;;;;;;4982603;28;20038;-71
2023/04/02 05:01:39;;;;;;;13.00;1.42;;;;;;;;;;4982682;28;20039;-70
2023/04/02 05:04:20;;;;;;;13.30;1.70;;;;;;;;;;4996935;28;20061;-75
2023/04/02 05:07:20;;;;;;;10.32;1.27;;;;;;;;;;4981843;28;20029;-75
2023/04/02 05:10:10;;;;;;;12.18;1.52;;;;;;;;;;4982010;28;20037;-75
2023/04/02 05:12:44;;;;;;;11.77;1.50;;;;;;;;;;4981885;28;20518;-76
2023/04/02 05:15:20;;;;;;;16.27;2.22;;;;;;;;;;4987868;28;20153;-76
2023/04/02 05:18:12;;;;;;;14.13;2.22;;;;;;;;;;4986192;28;20023;-74
2023/04/02 05:20:49;;;;;;;12.73;1.70;;;;;;;;;;4987478;28;20121;-75
2023/04/02 05:23:33;;;;;;;17.75;1.48;;;;;;;;;;4987881;28;20207;-76
2023/04/02 05:26:37;;;;;;;13.82;1.67;;;;;;;;;;4987375;28;20034;-75
2023/04/02 05:29:12;;;;;;;15.18;1.70;;;;;;;;;;4966117;28;20080;-75
2023/04/02 05:31:52;;;;;;;12.90;1.95;;;;;;;;;;4988863;28;20031;-76
2023/04/02 05:34:26;;;;;;;12.18;1.65;;;;;;;;;;4988691;28;20064;-76
2023/04/02 05:36:52;;;;;;;12.40;2.20;;;;;;;;;;4988635;28;20030;-76
2023/04/02 05:39:21;;;;;;;19.25;1.88;;;;;;;;;;4988640;28;20030;-75
2023/04/02 05:41:47;;;;;;;18.73;2.42;;;;;;;;;;4988767;28;20035;-74
2023/04/02 05:44:25;;;;;;;14.80;1.80;;;;;;;;;;4988762;28;20076;-74
2023/04/02 05:46:55;;;;;;;14.60;1.73;;;;;;;;;;4987747;28;20033;-75
2023/04/02 05:49:47;;;;;;;13.48;1.80;;;;;;;;;;4987702;28;20034;-75
2023/04/02 05:52:22;;;;;;;11.35;1.60;;;;;;;;;;4987507;28;20338;-75
2023/04/02 05:54:50;;;;;;;14.00;1.77;;;;;;;;;;4988569;28;20057;-76
2023/04/02 05:57:21;;;;;;;16.92;1.75;;;;;;;;;;4999441;28;20046;-76
2023/04/02 05:59:53;;;;;;;11.95;1.88;;;;;;;;;;4999568;28;20026;-77
2023/04/02 06:02:35;;;;;;;11.65;1.50;;;;;;;;;;4989555;28;20733;-75
2023/04/02 06:05:04;;;;;;;14.18;1.60;;;;;;;;;;4988404;28;20480;-78
2023/04/02 06:08:05;;;;;;;13.43;1.50;;;;;;;;;;4988245;28;20019;-75
2023/04/02 06:10:42;;;;;;;11.60;1.67;;;;;;;;;;4985740;28;20038;-76
2023/04/02 06:13:15;;;;;;;15.68;1.70;;;;;;;;;;4987849;28;20037;-76
2023/04/02 06:15:40;;;;;;;9.30;2.00;;;;;;;;;;4987644;28;20031;-76
2023/04/02 06:18:30;;;;;;;13.90;1.77;;;;;;;;;;4987686;28;20022;-76
2023/04/02 06:20:55;;;;;;;11.52;1.40;;;;;;;;;;4983078;28;20114;-78
2023/04/02 06:23:32;;;;;;;10.52;1.50;;;;;;;;;;4988249;28;20031;-75
2023/04/02 06:26:22;;;;;;;10.20;1.70;;;;;;;;;;4984210;28;20101;-75
2023/04/02 06:29:26;;;;;;;16.48;1.83;;;;;;;;;;4984971;28;20236;-74
2023/04/02 06:31:58;;;;;;;13.15;1.60;;;;;;;;;;5000257;28;20261;-74
2023/04/02 06:34:27;;;;;;;9.48;1.80;;;;;;;;;;4985132;28;20318;-75
2023/04/02 06:37:02;;;;;;;11.70;1.75;;;;;;;;;;4984858;28;20050;-75
2023/04/02 06:39:28;;;;;;;16.45;1.95;;;;;;;;;;4983752;28;20030;-76
2023/04/02 06:42:32;;;;;;;12.27;2.10;;;;;;;;;;4983613;28;20054;-74
2023/04/02 06:44:57;;;;;;;13.00;1.80;;;;;;;;;;4983670;28;20051;-73
2023/04/02 06:47:50;;;;;;;14.50;1.88;;;;;;;;;;4984750;28;20084;-73
2023/04/02 06:50:25;;;;;;;15.32;1.77;;;;;;;;;;4982844;28;20113;-70
2023/04/02 06:52:57;;;;;;;16.90;1.65;;;;;;;;;;4984724;28;20096;-68
2023/04/02 06:55:32;;;;;;;17.38;1.92;;;;;;;;;;4984438;28;20027;-73
2023/04/02 06:58:00;;;;;;;11.32;1.73;;;;;;;;;;4983354;28;20322;-76
2023/04/02 07:00:41;;;;;;;14.85;1.92;;;;;;;;;;4983341;28;20326;-70
2023/04/02 07:03:29;;;;;;;17.55;2.28;;;;;;;;;;4984044;28;20026;-76
2023/04/02 07:05:55;;;;;;;13.77;1.85;;;;;;;;;;4971982;28;20041;-74
2023/04/02 07:08:21;;;;;;;11.27;1.70;;;;;;;;;;4972332;28;20038;-79
2023/04/02 07:10:46;;;;;;;11.52;1.70;;;;;;;;;;4972042;28;20035;-77
2023/04/02 07:13:16;;;;;;;14.13;1.75;;;;;;;;;;4973214;28;20027;-76
2023/04/02 07:15:44;;;;;;;14.00;1.90;;;;;;;;;;4970459;28;20034;-77
2023/04/02 07:18:22;;;;;;;19.25;1.90;;;;;;;;;;4972992;28;20047;-75
2023/04/02 07:20:48;;;;;;;15.52;1.88;;;;;;;;;;4972682;28;20073;-73
2023/04/02 07:23:13;;;;;;;14.13;2.00;;;;;;;;;;4971858;28;20026;-78
2023/04/02 07:25:39;;;;;;;14.88;2.30;;;;;;;;;;4972536;28;20035;-72
2023/04/02 07:28:05;;;;;;;14.45;2.00;;;;;;;;;;4985509;28;20034;-71
2023/04/02 07:30:30;;;;;;;17.08;2.13;;;;;;;;;;5000161;28;20070;-71
2023/04/02 07:32:56;;;;;;;8.73;1.45;;;;;;;;;;4984538;28;20042;-74
2023/04/02 07:35:21;;;;;;;15.57;2.35;;;;;;;;;;4986974;28;20026;-70
2023/04/02 07:37:47;;;;;;;11.88;1.85;;;;;;;;;;5002817;28;20075;-73
2023/04/02 07:40:17;;;;;;;14.23;2.10;;;;;;;;;;4994655;28;20034;-69
2023/04/02 07:42:43;;;;;;;;;;;;;;;;;;4981738;28;20467;-67
2023/04/02 07:45:09;;;;;;;10.15;1.73;;;;;;;;;;4982968;28;19942;-68
2023/04/02 07:47:34;;;;;;;13.23;1.73;;;;;;;;;;4983474;28;20045;-71
2023/04/02 07:50:00;;;;;;;12.88;2.30;;;;;;;;;;4983361;28;20034;-72
2023/04/02 07:52:25;;;;;;;11.57;1.65;;;;;;;;;;4983225;28;20070;-73
2023/04/02 07:54:51;;;;;;;11.75;1.67;;;;;;;;;;4983108;28;20258;-73
2023/04/02 07:57:16;;;;;;;14.98;2.25;;;;;;;;;;4983471;28;20265;-73
2023/04/02 07:59:41;;;;;;;14.82;1.83;;;;;;;;;;4983167;28;20039;-74
2023/04/02 08:02:18;;;;;;;14.27;2.28;;;;;;;;;;4983195;28;20046;-73
2023/04/02 08:04:43;;;;;;;12.65;1.70;;;;;;;;;;4980477;28;20082;-73
2023/04/02 08:07:08;;;;;;;13.48;1.80;;;;;;;;;;4974178;28;20042;-70
2023/04/02 08:09:34;;;;;;;10.25;1.85;;;;;;;;;;4970749;28;20056;-74
2023/04/02 08:12:00;;;;;;;11.25;1.88;;;;;;;;;;4969586;28;20034;-73
2023/04/02 08:14:25;;;;;;;11.45;1.80;;;;;;;;;;4969735;28;20034;-71
2023/04/02 08:16:54;;;;;;;11.50;1.60;;;;;;;;;;4970890;28;20038;-73
2023/04/02 08:19:20;;;;;;;14.23;2.00;;;;;;;;;;4971028;28;20069;-74
2023/04/02 08:21:50;;;;;;;12.07;1.85;;;;;;;;;;4969546;28;20034;-73
2023/04/02 08:24:18;;;;;;;12.45;1.75;;;;;;;;;;4981553;28;20278;-73
2023/04/02 08:26:44;;;;;;;11.43;1.70;;;;;;;;;;4982123;28;20245;-74
2023/04/02 08:29:09;;;;;;;17.48;2.05;;;;;;;;;;4981990;28;20098;-74
2023/04/02 08:31:35;;;;;;;14.68;1.80;;;;;;;;;;4981628;28;20031;-74
2023/04/02 08:34:00;;;;;;;9.95;1.60;;;;;;;;;;4982137;28;20042;-74
2023/04/02 08:36:31;;;;;;;9.13;2.22;;;;;;;;;;4981501;28;20046;-73
2023/04/02 08:38:57;;;;;;;11.43;1.80;;;;;;;;;;4981751;28;20101;-71
2023/04/02 08:41:26;;;;;;;10.15;1.55;;;;;;;;;;4981884;28;20022;-74
2023/04/02 08:44:01;;;;;;;11.65;1.77;;;;;;;;;;4979866;28;20065;-69
2023/04/02 08:46:42;;;;;;;10.20;1.50;;;;;;;;;;4981449;28;20027;-70
2023/04/02 08:49:25;;;;;;;12.82;1.70;;;;;;;;;;4980785;28;20326;-71
2023/04/02 08:51:51;;;;;;;11.48;1.80;;;;;;;;;;4980507;28;20331;-69
2023/04/02 08:54:25;;;;;;;11.05;1.90;;;;;;;;;;4980722;28;20311;-72
2023/04/02 08:56:57;;;;;;;8.18;1.40;;;;;;;;;;4969623;28;20031;-73
2023/04/02 08:59:38;;;;;;;10.82;1.58;;;;;;;;;;4967932;28;20026;-72
2023/04/02 09:02:26;;;;;;;14.70;1.50;;;;;;;;;;4967582;28;20030;-73
2023/04/02 09:04:52;;;;;;;12.80;1.85;;;;;;;;;;4969721;28;20058;-70
2023/04/02 09:07:18;;;;;;;11.30;1.38;;;;;;;;;;4969716;28;20483;-72
2023/04/02 09:09:47;;;;;;;10.65;1.92;;;;;;;;;;4970107;28;20031;-72
2023/04/02 09:12:27;;;;;;;10.07;1.75;;;;;;;;;;4970133;28;20027;-73
2023/04/02 09:15:11;;;;;;;10.60;1.83;;;;;;;;;;4968756;28;20054;-72
2023/04/02 09:17:38;;;;;;;7.18;1.40;;;;;;;;;;4969610;28;20272;-73
2023/04/02 09:20:17;;;;;;;10.50;1.55;;;;;;;;;;4969196;28;20058;-74
2023/04/02 09:22:49;;;;;;;12.88;1.85;;;;;;;;;;4969075;28;20530;-72
2023/04/02 09:25:25;;;;;;;8.57;1.40;;;;;;;;;;4968449;28;20085;-72
2023/04/02 09:27:53;;;;;;;9.02;1.45;;;;;;;;;;4968136;28;20037;-72
2023/04/02 09:30:30;;;;;;;13.43;1.60;;;;;;;;;;4968275;28;20031;-70
2023/04/02 09:32:57;;;;;;;9.48;1.40;;;;;;;;;;4968343;28;20026;-73
2023/04/02 09:35:22;;;;;;;11.55;1.42;;;;;;;;;;4968560;28;20034;-74
2023/04/02 09:38:27;;;;;;;10.15;1.50;;;;;;;;;;4968137;28;20030;-76
2023/04/02 09:41:19;;;;;;;9.70;1.30;;;;;;;;;;4969981;28;20126;-73
2023/04/02 09:43:45;;;;;;;6.65;1.30;;;;;;;;;;4968786;28;20518;-71
2023/04/02 09:46:20;;;;;;;9.88;1.30;;;;;;;;;;4969258;28;20035;-71
2023/04/02 09:48:51;;;;;;;12.45;1.52;;;;;;;;;;4984807;28;20112;-71
2023/04/02 09:51:23;;;;;;;9.40;1.45;;;;;;;;;;4982349;28;20034;-68
2023/04/02 09:54:01;;;;;;;6.43;1.38;;;;;;;;;;4977882;28;20031;-70
2023/04/02 09:56:26;;;;;;;6.88;1.48;;;;;;;;;;4976045;28;20054;-73
2023/04/02 09:59:03;;;;;;;5.75;1.27;;;;;;;;;;4968962;28;20027;-73
2023/04/02 10:01:36;;;;;;;6.10;1.15;;;;;;;;;;4976518;28;20034;-74
2023/04/02 10:04:03;;;;;;;7.47;1.13;;;;;;;;;;4971977;28;20046;-70
2023/04/02 10:06:30;;;;;;;5.82;1.08;;;;;;;;;;4975909;28;20034;-67
2023/04/02 10:08:57;;;;;;;5.57;1.00;;;;;;;;;;4973542;28;20047;-68
2023/04/02 10:11:33;;;;;;;4.25;0.82;;;;;;;;;;4972914;28;20442;-68
2023/04/02 10:14:18;;;;;;;2.97;0.80;;;;;;;;;;4971798;28;20027;-67
2023/04/02 10:16:49;;;;;;;3.83;0.90;;;;;;;;;;4971720;28;20027;-67
2023/04/02 10:19:28;;;;;;;4.90;0.90;;;;;;;;;;4970640;28;20640;-68
2023/04/02 10:21:55;;;;;;;3.55;0.77;;;;;;;;;;4971438;28;20015;-69
2023/04/02 10:24:20;;;;;;;2.05;0.60;;;;;;;;;;4971980;28;20065;-68
2023/04/02 10:27:05;;;;;;;4.97;1.15;;;;;;;;;;4971599;28;20532;-69
2023/04/02 10:30:01;;;;;;;3.05;0.90;;;;;;;;;;4971985;28;20030;-68
2023/04/02 10:32:37;;;;;;;2.97;0.75;;;;;;;;;;4971127;28;20027;-69
2023/04/02 10:35:07;;;;;;;4.95;0.80;;;;;;;;;;4972887;28;20030;-68
2023/04/02 10:37:53;;;;;;;2.25;0.63;;;;;;;;;;4972404;28;20627;-68
2023/04/02 10:40:22;;;;;;;6.32;0.90;;;;;;;;;;4972853;28;20062;-68
2023/04/02 10:43:11;;;;;;;3.88;0.80;;;;;;;;;;4972591;28;20680;-68
2023/04/02 10:45:49;;;;;;;2.75;0.80;;;;;;;;;;4972879;28;20467;-68
2023/04/02 10:48:39;;;;;;;3.92;0.90;;;;;;;;;;4971051;28;20086;-68
2023/04/02 10:51:12;;;;;;;8.02;1.30;;;;;;;;;;4971990;28;20414;-68
2023/04/02 10:54:10;;;;;;;4.00;1.10;;;;;;;;;;4972296;28;20065;-68
2023/04/02 10:56:36;;;;;;;4.03;0.90;;;;;;;;;;4972675;28;20502;-69
2023/04/02 10:59:12;;;;;;;2.75;0.88;;;;;;;;;;4972301;28;20030;-68
2023/04/02 11:01:40;;;;;;;3.78;0.80;;;;;;;;;;4971159;28;20035;-68
2023/04/02 11:04:17;;;;;;;3.75;0.88;;;;;;;;;;4971810;28;20054;-68
2023/04/02 11:06:49;;;;;;;2.75;0.98;;;;;;;;;;4972097;28;20123;-68
2023/04/02 11:09:19;;;;;;;4.05;0.90;;;;;;;;;;4971827;28;20041;-70
2023/04/02 11:11:47;;;;;;;3.80;0.90;;;;;;;;;;4970603;28;20034;-68
2023/04/02 11:14:19;;;;;;;3.40;0.90;;;;;;;;;;4971918;28;20034;-67
2023/04/02 11:16:47;;;;;;;2.33;0.70;;;;;;;;;;4972406;28;20031;-68
2023/04/02 11:19:16;;;;;;;5.57;0.80;;;;;;;;;;4970502;28;20085;-68
2023/04/02 11:21:47;;;;;;;3.47;0.80;;;;;;;;;;4971701;28;20027;-68
2023/04/02 11:24:31;;;;;;;2.65;0.93;;;;;;;;;;4971883;28;20023;-68
2023/04/02 11:27:17;;;;;;;4.90;0.90;;;;;;;;;;4972199;28;20027;-69
2023/04/02 11:30:02;;;;;;;2.85;0.90;;;;;;;;;;4964477;28;20046;-68
2023/04/02 11:32:33;;;;;;;4.28;0.90;;;;;;;;;;4971939;28;20030;-67
2023/04/02 11:35:37;;;;;;;;;;;;;;;;;;4972432;28;20023;-66
2023/04/02 11:38:08;;;;;;;4.15;0.90;;;;;;;;;;4930052;29;19922;-68
2023/04/02 11:40:57;;;;;;;3.45;1.00;;;;;;;;;;4930431;29;20032;-67
2023/04/02 11:43:32;;;;;;;2.25;0.70;;;;;;;;;;4957208;28;20431;-68
2023/04/02 11:46:03;;;;;;;1.33;0.70;;;;;;;;;;4971583;28;20018;-68
2023/04/02 11:48:34;;;;;;;3.88;1.00;;;;;;;;;;4971208;28;20058;-67
2023/04/02 11:51:21;;;;;;;2.17;0.70;;;;;;;;;;4970944;28;20111;-69
2023/04/02 11:53:51;;;;;;;4.10;1.08;;;;;;;;;;4964150;28;20188;-70
2023/04/02 11:56:32;;;;;;;3.55;1.00;;;;;;;;;;4971337;28;20470;-68
2023/04/02 11:59:15;;;;;;;3.83;0.80;;;;;;;;;;4971162;28;20027;-67
2023/04/02 12:02:02;;;;;;;3.25;0.90;;;;;;;;;;4971316;28;20038;-68
2023/04/02 12:04:43;;;;;;;1.92;0.80;;;;;;;;;;4970858;28;20514;-68
2023/04/02 12:07:35;;;;;;;2.67;0.90;;;;;;;;;;4971215;28;20042;-67
2023/04/02 12:10:21;;;;;;;3.22;0.88;;;;;;;;;;4970925;28;20035;-68
2023/04/02 12:12:47;;;;;;;1.55;0.80;;;;;;;;;;4971065;28;20498;-68
2023/04/02 12:15:25;;;;;;;2.75;1.00;;;;;;;;;;4971228;28;20422;-69
2023/04/02 12:17:51;;;;;;;2.15;0.75;;;;;;;;;;4969000;28;20050;-69
2023/04/02 12:20:20;;;;;;;4.13;1.00;;;;;;;;;;4969717;28;20104;-68
2023/04/02 12:22:54;;;;;;;2.47;0.82;;;;;;;;;;4969859;28;20598;-69
2023/04/02 12:25:20;;;;;;;3.80;0.70;;;;;;;;;;4971317;28;20037;-69
2023/04/02 12:27:46;;;;;;;1.17;0.65;;;;;;;;;;4970893;28;20035;-69
2023/04/02 12:30:22;;;;;;;2.70;0.70;;;;;;;;;;4970461;28;20034;-69
2023/04/02 12:32:48;;;;;;;2.08;0.90;;;;;;;;;;4970944;28;20034;-68
2023/04/02 12:35:32;;;;;;;2.03;0.90;;;;;;;;;;4970573;28;20027;-68
2023/04/02 12:37:58;;;;;;;3.97;0.90;;;;;;;;;;4970218;28;20045;-68
2023/04/02 12:40:25;;;;;;;1.58;0.70;;;;;;;;;;4970580;28;20039;-68
2023/04/02 12:42:50;;;;;;;2.55;1.02;;;;;;;;;;4971004;28;20035;-67
2023/04/02 12:45:32;;;;;;;2.30;0.95;;;;;;;;;;4970754;28;20372;-68
2023/04/02 12:48:01;;;;;;;2.75;1.10;;;;;;;;;;4970537;28;20169;-68
2023/04/02 12:50:27;;;;;;;4.68;1.30;;;;;;;;;;4970304;28;20105;-68
2023/04/02 12:52:54;;;;;;;2.80;1.00;;;;;;;;;;4970096;28;20105;-68
2023/04/02 12:55:24;;;;;;;3.15;1.10;;;;;;;;;;4968901;28;20112;-70
2023/04/02 12:57:57;;;;;;;2.33;0.75;;;;;;;;;;4971106;28;20038;-68
2023/04/02 13:00:26;;;;;;;4.07;0.88;;;;;;;;;;4969970;28;20034;-68
2023/04/02 13:03:00;;;;;;;2.78;0.70;;;;;;;;;;4970339;28;20035;-68
2023/04/02 13:05:39;;;;;;;1.67;0.60;;;;;;;;;;4970047;28;20037;-67
2023/04/02 13:08:04;;;;;;;1.88;0.77;;;;;;;;;;4970213;28;20027;-69
2023/04/02 13:10:30;;;;;;;1.27;0.60;;;;;;;;;;4969771;28;20035;-68
2023/04/02 13:13:01;;;;;;;2.97;0.70;;;;;;;;;;4970537;28;20053;-69
2023/04/02 13:15:30;;;;;;;;;;;;;;;;;;4970528;28;20478;-68
2023/04/02 13:18:18;;;;;;;2.05;0.70;;;;;;;;;;4970414;28;20325;-69
2023/04/02 13:20:53;;;;;;;2.45;0.73;;;;;;;;;;4970102;28;20547;-68
2023/04/02 13:23:27;;;;;;;3.35;0.90;;;;;;;;;;4969708;28;20045;-68
2023/04/02 13:25:58;;;;;;;2.30;0.90;;;;;;;;;;4969931;28;20050;-68
2023/04/02 13:28:25;;;;;;;2.67;0.70;;;;;;;;;;4970079;28;20027;-69
2023/04/02 13:30:50;;;;;;;2.83;0.85;;;;;;;;;;4969812;28;20031;-68
2023/04/02 13:33:16;;;;;;;2.95;0.80;;;;;;;;;;4970318;28;20183;-68
2023/04/02 13:35:42;;;;;;;2.35;0.90;;;;;;;;;;4973975;28;20587;-68
2023/04/02 13:38:07;;;;;;;2.15;1.00;;;;;;;;;;4973832;28;20107;-69
2023/04/02 13:40:34;;;;;;;1.42;0.70;;;;;;;;;;4973531;28;20034;-69
2023/04/02 13:43:00;;;;;;;1.23;0.60;;;;;;;;;;4974219;28;20386;-68
2023/04/02 13:45:32;;;;;;;1.35;0.70;;;;;;;;;;4973880;28;20030;-68
2023/04/02 13:48:00;;;;;;;1.13;0.73;;;;;;;;;;4978996;28;20062;-68
2023/04/02 13:50:28;;;;;;;1.88;0.80;;;;;;;;;;4979797;28;20086;-68
2023/04/02 13:52:56;;;;;;;1.75;0.88;;;;;;;;;;4976455;28;20035;-68
2023/04/02 13:55:26;;;;;;;3.55;0.80;;;;;;;;;;4974121;28;20106;-68
2023/04/02 13:57:51;;;;;;;3.35;1.00;;;;;;;;;;4974352;28;20031;-69
2023/04/02 14:00:18;;;;;;;1.38;0.80;;;;;;;;;;4973418;28;20089;-68
2023/04/02 14:02:50;;;;;;;2.45;0.90;;;;;;;;;;4973377;28;20440;-70
2023/04/02 14:05:30;;;;;;;1.55;0.80;;;;;;;;;;4973156;28;20043;-68
2023/04/02 14:08:36;;;;;;;2.15;0.90;;;;;;;;;;4973252;28;20022;-70
2023/04/02 14:11:17;;;;;;;0.82;0.60;;;;;;;;;;4947682;28;20122;-69
2023/04/02 14:13:49;;;;;;;1.65;0.80;;;;;;;;;;4973462;28;20122;-70
2023/04/02 14:16:23;;;;;;;2.38;1.00;;;;;;;;;;4973299;28;20442;-69
2023/04/02 14:19:16;;;;;;;1.65;0.90;;;;;;;;;;4973303;28;20597;-68
2023/04/02 14:22:07;;;;;;;3.08;1.20;;;;;;;;;;4972558;28;20038;-69
2023/04/02 14:25:00;;;;;;;2.10;1.10;;;;;;;;;;4972914;28;20035;-68
2023/04/02 14:27:34;;;;;;;3.80;1.30;;;;;;;;;;4971417;28;20023;-72
2023/04/02 14:30:10;;;;;;;3.08;1.10;;;;;;;;;;4971890;28;20069;-80
2023/04/02 14:32:50;;;;;;;2.17;1.00;;;;;;;;;;4973064;28;20023;-78
2023/04/02 14:35:27;;;;;;;1.83;0.90;;;;;;;;;;4972974;28;20023;-78
2023/04/02 14:38:14;;;;;;;3.15;1.10;;;;;;;;;;4972628;28;20042;-76
2023/04/02 14:40:48;;;;;;;1.67;0.90;;;;;;;;;;4972797;28;20030;-79
2023/04/02 14:43:20;;;;;;;1.50;0.80;;;;;;;;;;4973757;28;20027;-83
2023/04/02 14:45:54;;;;;;;3.65;0.90;;;;;;;;;;4972004;28;20495;-79
2023/04/02 14:48:25;;;;;;;2.53;1.10;;;;;;;;;;4974046;28;20380;-79
2023/04/02 14:51:21;;;;;;;3.20;0.90;;;;;;;;;;4971708;28;20038;-82
2023/04/02 14:53:53;;;;;;;2.30;0.90;;;;;;;;;;4979050;28;20565;-79
2023/04/02 14:56:20;;;;;;;3.08;1.00;;;;;;;;;;4991363;28;20031;-82
2023/04/02 14:58:52;;;;;;;3.22;1.05;;;;;;;;;;4991359;28;20037;-84
2023/04/02 15:01:24;;;;;;;1.73;0.93;;;;;;;;;;4981367;28;20585;-78
2023/04/02 15:03:58;;;;;;;1.50;1.05;;;;;;;;;;4977513;28;20078;-79
2023/04/02 15:06:30;;;;;;;1.92;0.95;;;;;;;;;;4979609;28;20311;-78
2023/04/02 15:09:03;;;;;;;3.60;1.00;;;;;;;;;;4974113;28;20026;-76
2023/04/02 15:11:36;;;;;;;1.23;0.93;;;;;;;;;;4989013;28;20104;-79
2023/04/02 15:14:09;;;;;;;2.25;0.80;;;;;;;;;;4994402;28;20021;-72
2023/04/02 15:16:35;;;;;;;2.92;0.90;;;;;;;;;;4995904;28;20031;-79
2023/04/02 15:19:03;;;;;;;1.35;0.80;;;;;;;;;;4975890;28;20022;-79
2023/04/02 15:22:03;;;;;;;1.35;0.70;;;;;;;;;;4975960;28;20031;-80
2023/04/02 15:24:39;;;;;;;3.83;1.10;;;;;;;;;;4983236;28;20029;-80
2023/04/02 15:27:28;;;;;;;2.17;0.80;;;;;;;;;;5000590;28;20034;-75
2023/04/02 15:30:13;;;;;;;1.88;0.98;;;;;;;;;;4998774;28;20569;-82